Time;durP1;ratioP1;P1;durP2;ratioP2;P2;SDS_P1;SDS_P2;PMS_P1;PMS_P2;Temp;Humidity;BMP_temperature;BMP_pressure;BME280_temperature;BME280_humidity;BME280_pressure;Samples;Min_cycle;Max_cycle;Signal;HPM_P1;HPM_P2
2022/04/23 00:00:12;;;;;;;0.50;0.40;;;10.20;99.90;;;;;;5055395;28;20251;-77
2022/04/23 00:02:41;;;;;;;0.50;0.40;;;10.10;99.90;;;;;;5050070;28;20198;-80
2022/04/23 00:05:08;;;;;;;1.13;1.02;;;10.10;99.90;;;;;;5052892;28;20206;-79
2022/04/23 00:07:35;;;;;;;4.15;3.95;;;10.10;99.90;;;;;;5048053;28;20218;-77
2022/04/23 00:10:02;;;;;;;0.50;0.40;;;10.10;99.90;;;;;;5055689;28;20205;-79
2022/04/23 00:12:28;;;;;;;0.63;0.63;;;10.10;99.90;;;;;;5055929;28;20200;-77
2022/04/23 00:14:55;;;;;;;0.50;0.40;;;10.10;99.90;;;;;;5055244;28;20273;-77
2022/04/23 00:17:23;;;;;;;0.50;0.40;;;10.10;99.90;;;;;;5055952;28;20225;-78
2022/04/23 00:19:50;;;;;;;0.50;0.40;;;10.00;99.90;;;;;;5055148;28;20224;-77
2022/04/23 00:22:17;;;;;;;0.60;0.60;;;10.10;99.90;;;;;;5055244;28;20697;-79
2022/04/23 00:24:44;;;;;;;0.60;0.50;;;10.00;99.90;;;;;;5055479;28;20251;-78
2022/04/23 00:27:11;;;;;;;0.50;0.40;;;10.00;99.90;;;;;;5055471;28;20257;-79
2022/04/23 00:29:39;;;;;;;1.08;1.08;;;10.00;99.90;;;;;;5055038;28;20190;-78
2022/04/23 00:32:07;;;;;;;0.70;0.65;;;10.00;99.90;;;;;;5055586;28;20206;-77
2022/04/23 00:34:35;;;;;;;1.13;0.98;;;9.90;99.90;;;;;;5055131;28;20197;-77
2022/04/23 00:37:03;;;;;;;0.50;0.40;;;10.00;99.90;;;;;;5055071;28;20220;-78
2022/04/23 00:39:30;;;;;;;0.50;0.50;;;10.00;99.90;;;;;;5054718;28;20214;-79
2022/04/23 00:41:59;;;;;;;0.50;0.50;;;10.00;99.90;;;;;;5054657;28;20202;-78
2022/04/23 00:44:26;;;;;;;0.85;0.85;;;10.00;99.90;;;;;;5054532;28;20200;-79
2022/04/23 00:46:52;;;;;;;1.60;1.50;;;10.00;99.90;;;;;;5054362;28;20237;-78
2022/04/23 00:49:19;;;;;;;4.72;4.30;;;10.00;99.90;;;;;;5053951;28;20196;-77
2022/04/23 00:51:49;;;;;;;0.85;0.85;;;9.90;99.90;;;;;;5054413;28;20212;-77
2022/04/23 00:54:16;;;;;;;0.50;0.40;;;9.90;99.90;;;;;;5054874;28;20200;-77
2022/04/23 00:56:43;;;;;;;1.58;1.20;;;9.80;99.90;;;;;;5054052;28;20225;-78
2022/04/23 00:59:11;;;;;;;0.63;0.40;;;9.80;99.90;;;;;;5054191;28;20257;-77
2022/04/23 01:01:40;;;;;;;1.67;1.58;;;9.80;99.90;;;;;;5054651;28;20197;-77
2022/04/23 01:04:07;;;;;;;0.70;0.60;;;9.80;99.90;;;;;;5054040;28;20251;-77
2022/04/23 01:06:35;;;;;;;13.30;8.50;;;9.90;99.90;;;;;;5063104;28;20261;-79
2022/04/23 01:09:08;;;;;;;0.63;0.63;;;9.80;99.90;;;;;;5062623;28;20192;-81
2022/04/23 01:11:36;;;;;;;13.90;1.67;;;9.80;99.90;;;;;;5066136;28;20201;-78
2022/04/23 01:14:04;;;;;;;1.30;1.20;;;9.80;99.90;;;;;;5054047;28;20200;-78
2022/04/23 01:16:31;;;;;;;0.50;0.40;;;9.80;99.90;;;;;;5052813;28;20261;-77
2022/04/23 01:18:57;;;;;;;0.70;0.60;;;9.80;99.90;;;;;;5053604;28;20564;-77
2022/04/23 01:21:26;;;;;;;1.73;1.52;;;9.80;99.90;;;;;;5054484;28;20208;-77
2022/04/23 01:23:53;;;;;;;0.73;0.73;;;9.70;99.90;;;;;;5054140;28;20198;-79
2022/04/23 01:26:27;;;;;;;1.58;1.48;;;9.80;99.90;;;;;;5053595;28;20783;-77
2022/04/23 01:28:55;;;;;;;0.60;0.60;;;9.80;99.90;;;;;;5053541;28;20242;-78
2022/04/23 01:31:22;;;;;;;2.08;1.95;;;9.80;99.90;;;;;;5053637;28;20611;-77
2022/04/23 01:33:48;;;;;;;1.40;1.08;;;9.80;99.90;;;;;;5054187;28;20673;-77
2022/04/23 01:36:16;;;;;;;2.83;2.22;;;9.80;99.90;;;;;;5053133;28;20217;-79
2022/04/23 01:38:44;;;;;;;0.50;0.50;;;9.80;99.90;;;;;;5053275;28;20296;-78
2022/04/23 01:41:11;;;;;;;0.50;0.43;;;9.80;99.90;;;;;;5053635;28;20197;-77
2022/04/23 01:43:38;;;;;;;0.50;0.50;;;9.80;99.90;;;;;;5053199;28;20201;-79
2022/04/23 01:46:05;;;;;;;5.78;5.47;;;9.80;99.90;;;;;;5053119;28;20226;-78
2022/04/23 01:48:31;;;;;;;0.50;0.40;;;9.80;99.90;;;;;;5052950;28;20204;-77
2022/04/23 01:50:58;;;;;;;2.38;1.17;;;9.80;99.90;;;;;;5053520;28;20202;-79
2022/04/23 01:53:25;;;;;;;0.50;0.40;;;9.80;99.90;;;;;;5053933;28;20201;-77
2022/04/23 01:55:54;;;;;;;0.50;0.45;;;9.80;99.90;;;;;;5052873;28;20228;-77
2022/04/23 01:58:22;;;;;;;1.50;0.85;;;9.80;99.90;;;;;;5053081;28;20670;-78
2022/04/23 02:00:49;;;;;;;0.57;0.50;;;9.80;99.90;;;;;;5053802;28;20193;-79
2022/04/23 02:03:16;;;;;;;0.93;0.85;;;9.80;99.90;;;;;;5053007;28;20197;-78
2022/04/23 02:05:43;;;;;;;0.63;0.63;;;9.80;99.90;;;;;;5053232;28;20580;-77
2022/04/23 02:08:09;;;;;;;2.88;2.72;;;9.80;99.90;;;;;;5053554;28;20204;-77
2022/04/23 02:10:36;;;;;;;0.80;0.80;;;9.80;99.90;;;;;;5055208;28;20657;-79
2022/04/23 02:13:04;;;;;;;1.00;0.88;;;9.80;99.90;;;;;;5051293;28;20235;-78
2022/04/23 02:15:31;;;;;;;0.50;0.40;;;9.70;99.90;;;;;;5053209;28;20685;-77
2022/04/23 02:18:00;;;;;;;0.63;0.63;;;9.80;99.90;;;;;;5052536;28;20559;-77
2022/04/23 02:20:28;;;;;;;0.50;0.40;;;9.70;99.90;;;;;;5052292;28;20218;-76
2022/04/23 02:22:54;;;;;;;0.50;0.50;;;9.70;99.90;;;;;;5052194;28;20250;-78
2022/04/23 02:25:21;;;;;;;0.50;0.40;;;9.70;99.90;;;;;;5052012;28;20201;-79
2022/04/23 02:27:50;;;;;;;1.77;1.67;;;9.70;99.90;;;;;;5052872;28;20208;-78
2022/04/23 02:30:20;;;;;;;1.15;1.15;;;9.70;99.90;;;;;;5056394;28;20202;-79
2022/04/23 02:32:47;;;;;;;0.60;0.60;;;9.70;99.90;;;;;;5056159;28;20225;-77
2022/04/23 02:35:16;;;;;;;0.50;0.40;;;9.60;99.90;;;;;;5056044;28;20198;-78
2022/04/23 02:37:44;;;;;;;2.17;2.08;;;9.60;99.90;;;;;;5055823;28;20887;-78
2022/04/23 02:40:11;;;;;;;0.50;0.40;;;9.60;99.90;;;;;;5056114;28;20217;-80
2022/04/23 02:42:39;;;;;;;1.58;1.13;;;9.60;99.90;;;;;;5056157;28;20204;-77
2022/04/23 02:45:06;;;;;;;0.88;0.80;;;9.60;99.90;;;;;;5056337;28;20255;-79
2022/04/23 02:47:43;;;;;;;0.50;0.40;;;9.60;99.90;;;;;;5055903;28;20226;-77
2022/04/23 02:50:10;;;;;;;0.60;0.55;;;9.60;99.90;;;;;;5056108;28;20191;-78
2022/04/23 02:52:38;;;;;;;0.88;0.88;;;9.60;99.90;;;;;;5055597;28;20213;-78
2022/04/23 02:55:06;;;;;;;3.72;0.93;;;9.60;99.90;;;;;;5056139;28;20199;-78
2022/04/23 02:57:33;;;;;;;0.65;0.65;;;9.60;99.90;;;;;;5055314;28;20304;-77
2022/04/23 03:00:00;;;;;;;0.50;0.40;;;9.60;99.90;;;;;;5055554;28;20575;-79
2022/04/23 03:02:27;;;;;;;0.50;0.40;;;9.50;99.90;;;;;;5055327;28;20196;-77
2022/04/23 03:04:56;;;;;;;0.50;0.40;;;9.50;99.90;;;;;;5055577;28;20290;-78
2022/04/23 03:07:22;;;;;;;0.50;0.40;;;9.50;99.90;;;;;;5055271;28;20225;-76
2022/04/23 03:09:49;;;;;;;1.08;1.08;;;9.40;99.90;;;;;;5055546;28;20279;-79
2022/04/23 03:12:16;;;;;;;0.50;0.40;;;9.40;99.90;;;;;;5055402;28;20593;-78
2022/04/23 03:14:43;;;;;;;13.50;12.82;;;9.30;99.90;;;;;;5055342;28;20231;-78
2022/04/23 03:17:09;;;;;;;0.50;0.40;;;9.30;99.90;;;;;;5054442;28;20216;-80
2022/04/23 03:19:36;;;;;;;0.50;0.40;;;9.20;99.90;;;;;;5054184;28;20222;-78
2022/04/23 03:22:04;;;;;;;0.50;0.40;;;9.20;99.90;;;;;;5054658;28;20203;-78
2022/04/23 03:24:31;;;;;;;0.50;0.40;;;9.30;99.90;;;;;;5054754;28;20200;-78
2022/04/23 03:26:58;;;;;;;0.68;0.68;;;9.20;99.90;;;;;;5055037;28;20679;-80
2022/04/23 03:29:25;;;;;;;2.80;1.55;;;9.20;99.90;;;;;;5054083;28;20205;-77
2022/04/23 03:31:51;;;;;;;0.50;0.40;;;9.20;99.90;;;;;;5054572;28;20196;-77
2022/04/23 03:34:19;;;;;;;0.60;0.55;;;9.20;99.90;;;;;;5054567;28;20548;-78
2022/04/23 03:36:45;;;;;;;3.03;2.80;;;9.20;99.90;;;;;;5054747;28;20262;-78
2022/04/23 03:39:14;;;;;;;1.65;1.55;;;9.20;99.90;;;;;;5053279;28;20216;-77
2022/04/23 03:41:41;;;;;;;0.50;0.40;;;9.20;99.90;;;;;;5054101;28;20225;-79
2022/04/23 03:44:08;;;;;;;0.60;0.60;;;9.20;99.90;;;;;;5054225;28;20212;-79
2022/04/23 03:46:34;;;;;;;0.60;0.60;;;9.30;99.90;;;;;;5053918;28;20218;-78
2022/04/23 03:49:01;;;;;;;0.50;0.50;;;9.30;99.90;;;;;;5053535;28;20205;-78
2022/04/23 03:51:28;;;;;;;4.03;1.45;;;9.30;99.90;;;;;;5057065;28;20208;-80
2022/04/23 03:53:55;;;;;;;2.55;2.35;;;9.40;99.90;;;;;;5055437;28;20545;-79
2022/04/23 03:56:24;;;;;;;0.95;0.95;;;9.40;99.90;;;;;;5054650;28;20225;-77
2022/04/23 03:58:51;;;;;;;1.40;0.90;;;9.40;99.90;;;;;;5053817;28;20189;-78
2022/04/23 04:01:18;;;;;;;1.77;1.67;;;9.40;99.90;;;;;;5053905;28;20606;-81
2022/04/23 04:03:44;;;;;;;0.57;0.57;;;9.30;99.90;;;;;;5053519;28;20200;-80
2022/04/23 04:06:11;;;;;;;0.95;0.85;;;9.30;99.90;;;;;;5053544;28;20607;-78
2022/04/23 04:08:38;;;;;;;0.50;0.40;;;9.30;99.90;;;;;;5053465;28;20205;-78
2022/04/23 04:11:05;;;;;;;1.58;1.48;;;9.30;99.90;;;;;;5053149;28;20190;-78
2022/04/23 04:13:33;;;;;;;0.82;0.82;;;9.30;99.90;;;;;;5053508;28;20197;-78
2022/04/23 04:15:59;;;;;;;0.50;0.40;;;9.30;99.90;;;;;;5053166;28;20218;-80
2022/04/23 04:18:26;;;;;;;1.00;1.00;;;9.30;99.90;;;;;;5053090;28;20211;-76
2022/04/23 04:20:55;;;;;;;0.70;0.70;;;9.30;99.90;;;;;;5052327;28;20224;-79
2022/04/23 04:23:23;;;;;;;0.50;0.40;;;9.30;99.90;;;;;;5053874;28;20193;-78
2022/04/23 04:25:50;;;;;;;1.10;1.02;;;9.30;99.90;;;;;;5055535;28;20702;-78
2022/04/23 04:28:17;;;;;;;0.52;0.50;;;9.30;99.90;;;;;;5054766;28;20203;-77
2022/04/23 04:33:29;;;;;;;0.50;0.40;;;9.30;99.90;;;;;;5055305;28;20659;-77
2022/04/23 04:35:56;;;;;;;0.50;0.40;;;9.40;99.90;;;;;;5055892;28;20220;-77
2022/04/23 04:38:23;;;;;;;0.50;0.40;;;9.40;99.90;;;;;;5055247;28;20210;-78
2022/04/23 04:40:49;;;;;;;2.80;2.05;;;9.40;99.90;;;;;;5055550;28;20212;-77
2022/04/23 04:43:16;;;;;;;0.50;0.50;;;9.40;99.90;;;;;;5055105;28;20205;-77
2022/04/23 04:45:44;;;;;;;0.60;0.50;;;9.40;99.90;;;;;;5055580;28;20227;-77
2022/04/23 04:48:11;;;;;;;3.08;1.05;;;9.40;99.90;;;;;;5054983;28;20198;-77
2022/04/23 04:50:38;;;;;;;1.40;1.30;;;9.40;99.90;;;;;;5054422;28;20201;-77
2022/04/23 04:53:05;;;;;;;1.70;1.60;;;9.40;99.90;;;;;;5055436;28;20199;-77
2022/04/23 04:55:33;;;;;;;0.70;0.70;;;9.40;99.90;;;;;;5055291;28;20289;-77
2022/04/23 04:58:00;;;;;;;0.60;0.40;;;9.50;99.90;;;;;;5054834;28;20185;-78
2022/04/23 05:00:27;;;;;;;0.50;0.40;;;9.50;99.90;;;;;;5054873;28;20228;-77
2022/04/23 05:02:55;;;;;;;0.50;0.40;;;9.60;99.90;;;;;;5055605;28;20197;-77
2022/04/23 05:05:22;;;;;;;1.50;1.40;;;9.60;99.90;;;;;;5054757;28;20568;-75
2022/04/23 05:07:48;;;;;;;1.13;1.13;;;9.60;99.90;;;;;;5054718;28;20209;-77
2022/04/23 05:10:15;;;;;;;0.68;0.68;;;9.70;99.90;;;;;;5054273;28;20192;-77
2022/04/23 05:12:42;;;;;;;0.50;0.40;;;9.80;99.90;;;;;;5054397;28;20208;-77
2022/04/23 05:15:11;;;;;;;0.50;0.40;;;9.80;99.90;;;;;;5055199;28;20211;-77
2022/04/23 05:17:39;;;;;;;0.50;0.40;;;9.80;99.90;;;;;;5054755;28;20232;-77
2022/04/23 05:20:08;;;;;;;9.68;1.52;;;9.90;99.90;;;;;;5054889;28;20212;-78
2022/04/23 05:22:35;;;;;;;1.02;0.93;;;10.00;99.90;;;;;;5054823;28;20197;-76
2022/04/23 05:25:01;;;;;;;0.60;0.47;;;10.00;99.90;;;;;;5054754;28;20844;-77
2022/04/23 05:27:28;;;;;;;0.60;0.45;;;10.10;99.90;;;;;;5054924;28;20221;-77
2022/04/23 05:29:55;;;;;;;0.60;0.50;;;10.20;99.90;;;;;;5054617;28;20284;-77
2022/04/23 05:32:21;;;;;;;3.08;1.88;;;10.20;99.90;;;;;;5055247;28;20198;-75
2022/04/23 05:34:48;;;;;;;0.88;0.77;;;10.30;99.90;;;;;;5054296;28;20208;-77
2022/04/23 05:37:16;;;;;;;3.13;2.83;;;10.50;99.90;;;;;;5053744;28;20229;-77
2022/04/23 05:39:43;;;;;;;1.25;1.00;;;10.60;99.90;;;;;;5054592;28;20214;-77
2022/04/23 05:42:09;;;;;;;1.27;1.20;;;10.70;99.90;;;;;;5054961;28;20198;-77
2022/04/23 05:44:36;;;;;;;0.60;0.60;;;11.00;99.90;;;;;;5054716;28;20201;-75
2022/04/23 05:47:03;;;;;;;2.35;2.25;;;11.60;99.90;;;;;;5053857;28;20222;-77
2022/04/23 05:49:30;;;;;;;0.85;0.85;;;12.20;99.90;;;;;;5053866;28;20204;-77
2022/04/23 05:51:57;;;;;;;1.95;1.85;;;12.70;99.90;;;;;;5053832;28;20198;-77
2022/04/23 05:54:25;;;;;;;4.30;3.63;;;12.90;99.90;;;;;;5053530;28;20205;-77
2022/04/23 05:56:52;;;;;;;0.50;0.40;;;13.30;99.90;;;;;;5073713;22;20216;-75
2022/04/23 05:59:18;;;;;;;1.60;1.25;;;13.90;99.90;;;;;;5014237;28;20191;-70
2022/04/23 06:01:45;;;;;;;1.30;1.20;;;14.50;99.90;;;;;;5023711;28;20204;-76
2022/04/23 06:04:12;;;;;;;0.50;0.40;;;15.20;99.90;;;;;;5034906;28;20191;-75
2022/04/23 06:06:38;;;;;;;1.00;0.73;;;15.90;99.90;;;;;;5035127;28;20469;-74
2022/04/23 06:09:05;;;;;;;2.40;1.83;;;16.50;99.90;;;;;;5034782;28;20819;-74
2022/04/23 06:11:33;;;;;;;0.60;0.60;;;16.60;99.90;;;;;;5034380;28;20435;-74
2022/04/23 06:14:01;;;;;;;1.43;1.33;;;17.10;99.90;;;;;;5034793;28;20441;-74
2022/04/23 06:16:27;;;;;;;1.53;1.50;;;17.60;99.90;;;;;;5034636;28;20449;-77
2022/04/23 06:18:54;;;;;;;12.10;10.90;;;18.00;99.90;;;;;;5034659;28;20433;-77
2022/04/23 06:21:21;;;;;;;1.73;1.63;;;18.50;99.90;;;;;;5034728;28;20488;-75
2022/04/23 06:23:47;;;;;;;2.97;2.00;;;18.50;99.90;;;;;;5034327;28;20532;-75
2022/04/23 06:26:15;;;;;;;2.60;2.50;;;18.80;99.90;;;;;;5034004;28;20803;-76
2022/04/23 06:28:43;;;;;;;11.57;2.87;;;19.20;99.90;;;;;;5033880;28;20437;-77
2022/04/23 06:31:10;;;;;;;0.50;0.40;;;19.80;99.90;;;;;;5034594;28;20438;-74
2022/04/23 06:33:37;;;;;;;4.87;3.67;;;20.70;99.90;;;;;;5034120;28;20454;-78
2022/04/23 06:36:04;;;;;;;0.50;0.50;;;20.80;96.20;;;;;;5034782;28;20452;-76
2022/04/23 06:38:30;;;;;;;0.83;0.83;;;20.90;96.70;;;;;;5033956;28;20462;-76
2022/04/23 06:40:57;;;;;;;1.90;0.70;;;21.20;94.00;;;;;;5034709;28;20472;-76
2022/04/23 06:43:24;;;;;;;1.57;1.47;;;21.40;92.70;;;;;;5034648;28;20434;-74
2022/04/23 06:45:52;;;;;;;3.70;1.20;;;21.30;91.30;;;;;;5034253;28;20438;-76
2022/04/23 06:48:18;;;;;;;0.80;0.80;;;21.50;90.90;;;;;;5034029;28;20465;-76
2022/04/23 06:50:45;;;;;;;2.53;1.53;;;21.40;91.30;;;;;;5034295;28;20442;-75
2022/04/23 06:53:12;;;;;;;2.10;2.00;;;21.40;90.20;;;;;;5034469;28;20442;-75
2022/04/23 06:55:38;;;;;;;0.50;0.50;;;21.60;88.90;;;;;;5033951;28;20812;-74
2022/04/23 06:58:05;;;;;;;1.67;1.27;;;22.30;86.50;;;;;;5033582;28;20556;-75
2022/04/23 07:00:32;;;;;;;0.93;0.93;;;22.60;83.30;;;;;;5033833;28;20477;-75
2022/04/23 07:03:00;;;;;;;1.70;0.77;;;23.10;82.30;;;;;;5034283;28;20450;-76
2022/04/23 07:05:27;;;;;;;0.50;0.43;;;23.20;80.60;;;;;;5033997;28;20445;-74
2022/04/23 07:07:58;;;;;;;0.50;0.37;;;24.00;77.90;;;;;;5033154;28;21003;-76
2022/04/23 07:10:26;;;;;;;2.07;1.97;;;24.50;75.70;;;;;;5034171;28;20445;-75
2022/04/23 07:12:53;;;;;;;0.80;0.80;;;25.00;70.20;;;;;;5033576;28;20812;-76
2022/04/23 07:15:21;;;;;;;1.60;1.50;;;25.00;70.00;;;;;;5033815;28;20437;-75
2022/04/23 07:17:48;;;;;;;1.90;1.80;;;25.70;67.00;;;;;;5033275;28;20505;-75
2022/04/23 07:20:17;;;;;;;1.23;1.23;;;25.20;66.20;;;;;;5033336;28;20473;-75
2022/04/23 07:24:02;;;;;;;1.37;1.27;;;24.00;66.20;;;;;;5033727;28;20446;-76
2022/04/23 07:25:32;;;;;;;4.03;0.90;;;23.90;68.20;;;;;;5033716;28;20797;-76
2022/04/23 07:27:59;;;;;;;0.90;0.80;;;23.80;68.40;;;;;;5033410;28;20461;-76
2022/04/23 07:30:26;;;;;;;2.30;2.10;;;23.50;67.80;;;;;;5013180;28;20435;-76
2022/04/23 07:32:53;;;;;;;2.30;1.70;;;22.90;69.00;;;;;;5013988;28;20439;-76
2022/04/23 07:38:14;;;;;;;0.70;0.70;;;22.80;70.20;;;;;;5013251;28;20994;-77
2022/04/23 07:40:41;;;;;;;0.50;0.40;;;23.20;72.10;;;;;;5013781;28;20477;-76
2022/04/23 07:43:10;;;;;;;1.13;1.13;;;23.80;71.20;;;;;;5012168;28;20875;-76
2022/04/23 07:45:37;;;;;;;0.80;0.60;;;24.20;70.30;;;;;;5013638;28;20451;-74
2022/04/23 07:48:04;;;;;;;0.50;0.40;;;24.50;69.40;;;;;;5013165;28;20463;-77
2022/04/23 07:50:32;;;;;;;2.97;2.77;;;25.70;65.30;;;;;;5013216;28;20447;-76
2022/04/23 07:52:59;;;;;;;3.23;2.10;;;25.80;62.60;;;;;;5012880;28;20439;-76
2022/04/23 07:55:26;;;;;;;1.13;1.03;;;25.20;62.70;;;;;;5012937;28;20451;-72
2022/04/23 07:57:53;;;;;;;0.80;0.80;;;24.20;64.50;;;;;;5010888;28;20844;-76
2022/04/23 08:00:20;;;;;;;8.13;2.57;;;24.10;65.70;;;;;;5012601;28;20438;-71
2022/04/23 08:02:46;;;;;;;2.70;2.60;;;24.50;64.80;;;;;;5012860;28;20936;-76
2022/04/23 08:05:13;;;;;;;2.77;1.83;;;24.30;65.20;;;;;;5012918;28;20808;-75
2022/04/23 08:07:43;;;;;;;0.60;0.50;;;24.20;65.10;;;;;;5012881;28;20466;-75
2022/04/23 08:10:10;;;;;;;4.50;3.07;;;24.20;65.60;;;;;;5013246;28;20439;-76
2022/04/23 08:12:37;;;;;;;2.30;1.83;;;24.10;64.80;;;;;;5012848;28;20443;-76
2022/04/23 08:15:05;;;;;;;0.50;0.30;;;23.40;65.80;;;;;;5012867;28;20445;-76
2022/04/23 08:17:32;;;;;;;2.53;2.33;;;23.30;66.20;;;;;;5012509;28;20461;-76
2022/04/23 08:19:59;;;;;;;2.50;1.80;;;23.10;66.90;;;;;;5012538;28;20978;-76
2022/04/23 08:22:25;;;;;;;0.50;0.30;;;23.20;67.10;;;;;;5012590;28;21039;-75
2022/04/23 08:24:53;;;;;;;0.50;0.40;;;23.50;68.00;;;;;;5012834;28;20451;-76
2022/04/23 08:27:20;;;;;;;6.33;2.60;;;24.00;67.70;;;;;;5012615;28;20987;-76
2022/04/23 08:32:31;;;;;;;0.80;0.80;;;23.70;66.10;;;;;;5012611;28;20765;-76
2022/04/23 08:34:59;;;;;;;1.67;1.57;;;24.70;67.00;;;;;;5012267;28;20447;-75
2022/04/23 08:37:25;;;;;;;0.60;0.50;;;25.00;63.80;;;;;;5012000;28;21077;-75
2022/04/23 08:39:54;;;;;;;1.03;0.93;;;25.40;65.40;;;;;;5012085;28;20446;-76
2022/04/23 08:42:21;;;;;;;1.47;1.37;;;25.60;63.10;;;;;;5012260;28;20479;-76
2022/04/23 08:44:47;;;;;;;2.30;1.77;;;25.40;62.30;;;;;;5012122;28;20561;-76
2022/04/23 08:47:16;;;;;;;1.03;1.03;;;25.40;62.60;;;;;;5012458;28;20462;-75
2022/04/23 08:49:43;;;;;;;1.10;1.00;;;25.90;61.80;;;;;;5011536;28;20453;-75
2022/04/23 08:52:15;;;;;;;9.77;8.80;;;25.80;60.90;;;;;;5012353;28;20453;-77
2022/04/23 08:54:43;;;;;;;0.50;0.30;;;25.20;61.70;;;;;;5012337;28;20451;-77
2022/04/23 08:57:11;;;;;;;3.07;2.47;;;25.10;61.10;;;;;;5011956;28;20973;-76
2022/04/23 08:59:38;;;;;;;2.30;2.10;;;24.30;62.30;;;;;;5011423;28;20442;-77
2022/04/23 09:02:11;;;;;;;3.07;2.87;;;23.30;64.20;;;;;;5011833;28;20470;-77
2022/04/23 09:04:38;;;;;;;0.97;0.97;;;23.40;65.80;;;;;;5012279;28;20419;-77
2022/04/23 09:07:05;;;;;;;6.93;2.97;;;23.00;66.80;;;;;;5011905;28;20443;-76
2022/04/23 09:09:31;;;;;;;1.93;1.73;;;23.50;67.70;;;;;;5011487;28;20447;-74
2022/04/23 09:11:59;;;;;;;0.50;0.30;;;23.60;65.30;;;;;;5011246;28;20616;-74
2022/04/23 09:14:29;;;;;;;0.60;0.40;;;24.10;66.90;;;;;;5012155;28;20534;-71
2022/04/23 09:25:17;;;;;;;0.50;0.30;;;27.40;59.40;;;;;;5011715;28;20970;-73
2022/04/23 09:27:45;;;;;;;1.33;1.23;;;27.20;59.00;;;;;;5009919;28;20865;-74
2022/04/23 09:30:14;;;;;;;0.50;0.30;;;27.20;58.30;;;;;;5011199;28;20454;-71
2022/04/23 09:32:57;;;;;;;1.00;0.90;;;27.90;57.90;;;;;;5011854;28;20443;-72
2022/04/23 09:35:25;;;;;;;7.50;5.67;;;28.70;56.40;;;;;;5011315;28;20537;-73
2022/04/23 09:40:36;;;;;;;1.00;0.80;;;27.70;56.90;;;;;;5011516;28;20570;-72
2022/04/23 09:43:05;;;;;;;2.20;2.00;;;27.80;56.80;;;;;;5011763;28;20442;-73
2022/04/23 09:45:39;;;;;;;1.00;1.00;;;27.30;56.80;;;;;;5010462;28;20446;-74
2022/04/23 09:48:17;;;;;;;0.80;0.73;;;28.10;58.00;;;;;;5010095;28;20473;-74
2022/04/23 09:50:44;;;;;;;0.70;0.70;;;28.30;56.10;;;;;;5009817;28;20439;-73
2022/04/23 09:53:12;;;;;;;0.80;0.77;;;28.90;57.50;;;;;;5011310;28;20470;-74
2022/04/23 09:55:39;;;;;;;0.60;0.50;;;28.40;56.20;;;;;;5011601;28;20435;-73
2022/04/23 09:58:07;;;;;;;1.23;0.70;;;29.20;56.20;;;;;;5010769;28;20466;-72
2022/04/23 10:00:38;;;;;;;3.53;2.37;;;29.10;54.50;;;;;;5011603;28;21021;-73
2022/04/23 10:03:07;;;;;;;1.13;1.13;;;29.30;56.10;;;;;;5011377;28;20829;-74
2022/04/23 10:05:38;;;;;;;0.50;0.30;;;29.30;54.40;;;;;;5011167;28;20474;-72
2022/04/23 10:08:10;;;;;;;0.60;0.50;;;29.50;53.90;;;;;;5011086;28;20494;-74
2022/04/23 10:10:42;;;;;;;2.33;2.23;;;29.40;53.50;;;;;;5011195;28;20451;-73
2022/04/23 10:13:11;;;;;;;1.13;1.13;;;29.20;53.80;;;;;;5011452;28;20420;-73
2022/04/23 10:15:41;;;;;;;0.60;0.53;;;29.00;55.10;;;;;;5011568;28;20443;-73
2022/04/23 10:18:09;;;;;;;0.67;0.67;;;28.70;52.90;;;;;;5010959;28;20817;-73
2022/04/23 10:20:37;;;;;;;0.50;0.40;;;27.70;54.00;;;;;;5011603;28;20450;-73
2022/04/23 10:23:12;;;;;;;1.90;0.83;;;26.60;55.80;;;;;;5010956;28;20565;-73
2022/04/23 10:25:47;;;;;;;3.93;1.40;;;24.90;56.90;;;;;;5011554;28;20419;-72
2022/04/23 10:28:16;;;;;;;0.50;0.40;;;23.60;59.10;;;;;;5010637;28;20462;-74
2022/04/23 10:30:47;;;;;;;0.60;0.60;;;24.10;60.20;;;;;;5010937;28;20442;-75
2022/04/23 10:33:28;;;;;;;0.60;0.40;;;24.50;60.20;;;;;;5010899;28;20493;-75
2022/04/23 10:36:08;;;;;;;2.40;2.30;;;25.70;59.50;;;;;;5010870;28;20959;-77
2022/04/23 10:38:38;;;;;;;0.60;0.50;;;26.20;57.50;;;;;;5010225;28;20462;-76
2022/04/23 10:41:05;;;;;;;0.60;0.40;;;26.80;56.80;;;;;;5011256;28;20447;-77
2022/04/23 10:43:32;;;;;;;7.57;1.70;;;26.50;56.70;;;;;;5010710;28;20983;-73
2022/04/23 10:46:00;;;;;;;4.10;1.80;;;25.90;56.30;;;;;;5010724;28;20451;-77
2022/04/23 10:48:29;;;;;;;1.23;1.10;;;25.50;57.20;;;;;;5011245;28;20501;-76
2022/04/23 10:51:04;;;;;;;0.60;0.40;;;25.00;58.20;;;;;;5014380;28;20936;-75
2022/04/23 10:53:50;;;;;;;0.60;0.43;;;25.20;58.60;;;;;;5014413;28;20422;-74
2022/04/23 10:56:19;;;;;;;0.97;0.70;;;25.40;58.90;;;;;;5013868;28;20431;-74
2022/04/23 10:58:46;;;;;;;0.50;0.30;;;25.30;57.30;;;;;;5013833;28;20493;-77
2022/04/23 11:01:25;;;;;;;0.90;0.90;;;24.90;57.90;;;;;;5014494;28;20443;-74
2022/04/23 11:03:59;;;;;;;6.47;2.73;;;24.70;57.80;;;;;;5014470;28;20780;-75
2022/04/23 11:12:27;;;;;;;1.70;1.03;;;25.60;56.20;;;;;;5014256;28;20915;-70
2022/04/23 11:14:56;;;;;;;1.27;1.17;;;26.10;55.10;;;;;;5014237;28;20442;-73
2022/04/23 11:17:45;;;;;;;1.00;0.90;;;25.20;55.40;;;;;;5013699;28;20493;-72
2022/04/23 11:20:13;;;;;;;3.23;1.43;;;24.70;56.10;;;;;;5013613;28;20443;-74
2022/04/23 11:22:40;;;;;;;3.20;2.20;;;24.50;57.00;;;;;;5014017;28;20477;-74
2022/04/23 11:25:08;;;;;;;0.53;0.40;;;24.90;56.40;;;;;;5014024;28;20443;-73
2022/04/23 11:27:36;;;;;;;0.50;0.30;;;25.50;55.90;;;;;;5013452;28;20463;-73
2022/04/23 11:30:04;;;;;;;0.63;0.63;;;25.80;55.40;;;;;;5013899;28;20447;-73
2022/04/23 11:32:34;;;;;;;0.87;0.80;;;25.60;54.80;;;;;;5013442;28;20450;-74
2022/04/23 11:35:02;;;;;;;1.60;1.50;;;25.50;54.90;;;;;;5014306;28;20442;-75
2022/04/23 11:37:29;;;;;;;0.50;0.40;;;25.70;55.10;;;;;;5013324;28;20470;-74
2022/04/23 11:40:08;;;;;;;5.80;3.30;;;25.40;54.90;;;;;;5013370;28;20479;-76
2022/04/23 11:42:39;;;;;;;1.03;0.93;;;25.90;54.50;;;;;;5013553;28;20481;-76
2022/04/23 11:45:06;;;;;;;1.90;1.57;;;26.30;55.30;;;;;;5013456;28;20442;-74
2022/04/23 11:47:35;;;;;;;1.07;0.93;;;26.60;52.80;;;;;;5013146;28;20462;-74
2022/04/23 11:50:09;;;;;;;1.00;0.90;;;25.50;53.00;;;;;;5013271;28;20450;-74
2022/04/23 11:52:36;;;;;;;0.50;0.40;;;24.30;54.40;;;;;;5013588;28;20438;-73
2022/04/23 11:55:03;;;;;;;0.50;0.30;;;23.50;55.60;;;;;;5013456;28;20446;-75
2022/04/23 11:57:30;;;;;;;0.60;0.50;;;23.40;56.70;;;;;;5053893;23;20872;-78
2022/04/23 12:00:00;;;;;;;0.70;0.70;;;23.00;57.10;;;;;;5060141;28;20433;-77
2022/04/23 12:02:28;;;;;;;1.37;1.17;;;22.50;57.60;;;;;;5058759;28;20469;-78
2022/04/23 12:04:58;;;;;;;0.87;0.60;;;22.10;58.20;;;;;;5033018;28;20784;-78
2022/04/23 12:07:26;;;;;;;0.50;0.30;;;22.30;58.60;;;;;;5032713;28;20532;-78
2022/04/23 12:09:55;;;;;;;1.00;0.77;;;22.30;58.40;;;;;;5032671;28;20954;-78
2022/04/23 12:12:23;;;;;;;1.30;1.00;;;21.80;57.70;;;;;;5031877;28;21228;-78
2022/04/23 12:14:50;;;;;;;0.80;0.80;;;21.50;58.60;;;;;;5032936;28;20449;-78
2022/04/23 12:17:22;;;;;;;0.60;0.40;;;21.40;59.50;;;;;;5032814;28;20477;-77
2022/04/23 12:19:49;;;;;;;1.40;1.17;;;21.10;58.70;;;;;;5033031;28;20442;-79
2022/04/23 12:22:24;;;;;;;0.60;0.60;;;20.80;59.20;;;;;;5032463;28;20474;-80
2022/04/23 12:24:52;;;;;;;2.00;1.47;;;21.80;59.60;;;;;;5033154;28;20446;-80
2022/04/23 12:27:18;;;;;;;0.60;0.60;;;23.00;59.30;;;;;;5033407;28;20442;-79
2022/04/23 12:40:53;;;;;;;1.13;1.07;;;23.80;55.80;;;;;;5061860;28;20428;-78
2022/04/23 12:43:25;;;;;;;0.60;0.50;;;23.50;55.60;;;;;;5052249;28;20476;-79
2022/04/23 12:46:04;;;;;;;4.07;2.90;;;23.50;56.20;;;;;;5052737;28;20441;-76
2022/04/23 12:48:31;;;;;;;0.70;0.50;;;22.60;56.10;;;;;;5051950;28;20484;-79
2022/04/23 12:51:06;;;;;;;0.77;0.77;;;22.10;57.00;;;;;;5052131;28;20447;-79
2022/04/23 12:53:35;;;;;;;0.50;0.30;;;22.10;57.20;;;;;;5052695;28;20443;-80
2022/04/23 12:56:05;;;;;;;2.57;1.20;;;21.90;57.80;;;;;;5051549;28;20437;-78
2022/04/23 12:58:32;;;;;;;3.50;2.70;;;22.40;57.80;;;;;;5051617;28;20576;-79
2022/04/23 13:00:59;;;;;;;0.50;0.40;;;23.20;57.60;;;;;;5052197;28;20440;-78
2022/04/23 13:03:33;;;;;;;2.87;2.00;;;23.80;57.10;;;;;;5051937;28;20503;-80
2022/04/23 13:06:00;;;;;;;0.50;0.30;;;24.60;56.40;;;;;;5052061;28;20478;-79
2022/04/23 13:11:30;;;;;;;0.50;0.40;;;24.30;56.20;;;;;;5051476;28;20416;-78
2022/04/23 13:13:58;;;;;;;0.87;0.80;;;23.50;56.70;;;;;;5052197;28;20425;-79
2022/04/23 13:16:25;;;;;;;2.00;1.33;;;23.30;57.30;;;;;;5051801;28;20901;-80
2022/04/23 13:18:56;;;;;;;3.07;0.60;;;23.30;58.10;;;;;;5051864;28;21087;-78
2022/04/23 13:21:26;;;;;;;10.30;1.90;;;23.70;58.10;;;;;;5052110;28;20445;-79
2022/04/23 13:23:53;;;;;;;2.83;2.63;;;23.60;56.70;;;;;;5051765;28;20849;-78
2022/04/23 13:26:23;;;;;;;1.67;1.57;;;23.60;56.60;;;;;;5050457;28;20956;-79
2022/04/23 13:28:50;;;;;;;1.10;1.10;;;24.20;57.60;;;;;;5051391;28;20453;-78
2022/04/23 13:31:17;;;;;;;1.90;1.27;;;23.90;55.60;;;;;;5051800;28;20941;-79
2022/04/23 13:33:44;;;;;;;0.83;0.80;;;23.40;56.30;;;;;;5051945;28;20445;-78